Time;durP1;ratioP1;P1;durP2;ratioP2;P2;SDS_P1;SDS_P2;PMS_P1;PMS_P2;Temp;Humidity;BMP_temperature;BMP_pressure;BME280_temperature;BME280_humidity;BME280_pressure;Samples;Min_cycle;Max_cycle;Signal;HPM_P1;HPM_P2
2023/11/23 00:01:45;;;;;;;75.10;37.00;;;;;;;-0.57;90.93;101010.77;129418;1281;115187;-58
2023/11/23 00:04:47;;;;;;;68.70;36.80;;;;;;;-0.57;90.83;101009.52;129417;1273;114715;-59
2023/11/23 00:07:49;;;;;;;67.40;35.60;;;;;;;-0.59;90.85;101010.57;129554;1264;114998;-59
2023/11/23 00:10:51;;;;;;;79.10;38.20;;;;;;;-0.60;91.08;101004.23;129906;1281;114713;-59
2023/11/23 00:13:53;;;;;;;75.80;37.20;;;;;;;-0.61;90.98;101002.13;129458;1281;114795;-59
2023/11/23 00:16:57;;;;;;;76.10;39.40;;;;;;;-0.62;90.82;100998.61;129435;1264;114799;-59
2023/11/23 00:19:58;;;;;;;79.70;41.90;;;;;;;-0.63;90.94;100991.95;129556;1259;115378;-59
2023/11/23 00:23:00;;;;;;;88.30;43.90;;;;;;;-0.64;90.98;100985.80;129479;1263;115274;-59
2023/11/23 00:26:03;;;;;;;83.20;40.00;;;;;;;-0.64;90.98;100975.45;129426;1260;114723;-59
2023/11/23 00:29:05;;;;;;;81.40;39.80;;;;;;;-0.65;90.94;100970.36;129431;1282;114765;-59
2023/11/23 00:32:07;;;;;;;69.00;38.20;;;;;;;-0.64;91.14;100950.52;129423;1259;114725;-59
2023/11/23 00:35:09;;;;;;;71.20;37.40;;;;;;;-0.64;91.05;100935.09;129431;1273;115167;-59
2023/11/23 00:38:11;;;;;;;71.60;38.00;;;;;;;-0.66;91.00;100934.57;129401;1282;114882;-59
2023/11/23 00:41:13;;;;;;;68.40;37.10;;;;;;;-0.68;91.00;100933.50;129385;1260;115173;-59
2023/11/23 00:44:16;;;;;;;70.90;37.50;;;;;;;-0.70;90.86;100938.22;129340;1282;115333;-59
2023/11/23 00:47:20;;;;;;;68.30;37.40;;;;;;;-0.71;91.07;100939.44;129532;1264;116326;-59
2023/11/23 00:50:22;;;;;;;72.00;36.30;;;;;;;-0.71;91.06;100943.13;129529;1263;114786;-60
2023/11/23 00:53:24;;;;;;;67.90;37.10;;;;;;;-0.70;91.06;100946.29;129378;1260;114768;-59
2023/11/23 00:56:25;;;;;;;65.40;36.30;;;;;;;-0.70;91.07;100940.67;129415;1260;114799;-59
2023/11/23 00:59:27;;;;;;;67.40;35.30;;;;;;;-0.71;91.16;100939.27;129525;1259;127312;-59
2023/11/23 01:02:29;;;;;;;64.70;34.60;;;;;;;-0.70;91.21;100925.59;129491;1264;114802;-59
2023/11/23 01:05:31;;;;;;;60.70;34.10;;;;;;;-0.70;91.12;100920.15;129460;1264;114780;-59
2023/11/23 01:08:33;;;;;;;70.70;35.60;;;;;;;-0.71;91.02;100914.17;129548;1259;114789;-59
2023/11/23 01:11:35;;;;;;;69.60;36.10;;;;;;;-0.71;91.04;100899.10;129426;1259;114833;-59
2023/11/23 01:14:37;;;;;;;66.40;35.20;;;;;;;-0.70;91.14;100887.35;129415;1259;114723;-59
2023/11/23 01:17:39;;;;;;;72.70;36.60;;;;;;;-0.70;91.24;100875.08;129350;1282;114866;-58
2023/11/23 01:20:41;;;;;;;72.50;35.30;;;;;;;-0.68;91.16;100873.86;129426;1279;114709;-59
2023/11/23 01:23:43;;;;;;;67.30;35.10;;;;;;;-0.68;91.10;100874.73;129409;1280;114719;-59
2023/11/23 01:26:45;;;;;;;70.80;36.20;;;;;;;-0.68;91.30;100874.56;129420;1260;115250;-59
2023/11/23 01:29:47;;;;;;;72.60;38.20;;;;;;;-0.68;91.15;100872.29;129350;1259;114768;-59
2023/11/23 01:32:48;;;;;;;72.80;36.50;;;;;;;-0.67;91.24;100869.14;129516;1264;114754;-59
2023/11/23 01:35:50;;;;;;;76.90;36.40;;;;;;;-0.65;91.36;100860.54;129571;1275;114905;-60
2023/11/23 01:38:52;;;;;;;68.70;36.10;;;;;;;-0.65;91.31;100856.16;129375;1275;114801;-59
2023/11/23 01:41:54;;;;;;;73.40;36.50;;;;;;;-0.65;91.34;100851.42;129437;1264;114767;-59
2023/11/23 01:44:56;;;;;;;75.10;38.50;;;;;;;-0.64;91.32;100851.96;129503;1282;128948;-59
2023/11/23 01:47:58;;;;;;;70.10;35.30;;;;;;;-0.65;91.06;100840.02;129369;1282;114689;-60
2023/11/23 01:51:00;;;;;;;74.00;35.60;;;;;;;-0.66;91.28;100830.20;129471;1263;114739;-59
2023/11/23 01:54:02;;;;;;;67.50;36.30;;;;;;;-0.68;91.18;100828.61;129358;1266;114867;-59
2023/11/23 01:57:06;;;;;;;76.30;36.30;;;;;;;-0.68;91.17;100824.40;129430;1264;115200;-59
2023/11/23 02:00:08;;;;;;;67.00;34.90;;;;;;;-0.69;91.20;100821.41;129433;1261;114719;-58
2023/11/23 02:03:10;;;;;;;73.10;35.90;;;;;;;-0.68;91.25;100817.03;129456;1259;115313;-59
2023/11/23 02:06:12;;;;;;;68.00;37.20;;;;;;;-0.69;91.28;100807.55;129534;1260;114884;-59
2023/11/23 02:09:14;;;;;;;76.50;36.90;;;;;;;-0.69;91.30;100802.46;129376;1276;115236;-59
2023/11/23 02:12:18;;;;;;;73.20;36.00;;;;;;;-0.67;91.41;100792.48;129464;1261;114877;-59
2023/11/23 02:15:20;;;;;;;70.00;37.30;;;;;;;-0.66;91.32;100784.77;129510;1263;114751;-59
2023/11/23 02:18:21;;;;;;;71.30;37.70;;;;;;;-0.67;91.30;100785.47;129595;1264;114719;-59
2023/11/23 02:21:23;;;;;;;68.70;37.50;;;;;;;-0.66;91.39;100791.27;129357;1279;114772;-59
2023/11/23 02:24:25;;;;;;;73.40;37.70;;;;;;;-0.65;91.27;100791.95;129333;1264;114797;-59
2023/11/23 02:27:27;;;;;;;71.50;36.10;;;;;;;-0.65;91.41;100792.66;129464;1275;114834;-59
2023/11/23 02:30:29;;;;;;;71.30;38.70;;;;;;;-0.65;91.31;100790.73;129360;1264;115235;-59
2023/11/23 02:33:31;;;;;;;74.20;38.90;;;;;;;-0.64;91.42;100779.67;129428;1259;114760;-60
2023/11/23 02:36:34;;;;;;;68.10;37.40;;;;;;;-0.62;91.29;100768.64;129576;1280;114719;-59
2023/11/23 02:39:35;;;;;;;71.60;37.80;;;;;;;-0.59;91.56;100754.45;129542;1282;114751;-59
2023/11/23 02:42:39;;;;;;;67.20;34.70;;;;;;;-0.57;91.35;100743.39;129468;1282;114708;-59
2023/11/23 02:45:41;;;;;;;61.30;33.90;;;;;;;-0.55;91.38;100733.74;129476;1264;128918;-59
2023/11/23 02:48:43;;;;;;;65.60;35.50;;;;;;;-0.54;91.37;100727.44;129423;1259;115953;-59
2023/11/23 02:51:45;;;;;;;68.70;36.50;;;;;;;-0.51;91.44;100722.55;129456;1258;114822;-59
2023/11/23 02:54:47;;;;;;;67.80;36.20;;;;;;;-0.48;91.54;100721.67;129369;1273;114698;-59
2023/11/23 02:57:49;;;;;;;71.10;38.60;;;;;;;-0.43;91.62;100716.95;129477;1275;115153;-59
2023/11/23 03:00:51;;;;;;;67.20;35.20;;;;;;;-0.41;91.64;100712.55;129440;1262;114726;-59
2023/11/23 03:03:54;;;;;;;67.10;35.80;;;;;;;-0.37;91.49;100703.79;129520;1264;114769;-59
2023/11/23 03:06:55;;;;;;;62.60;34.00;;;;;;;-0.32;91.60;100696.79;129426;1279;115179;-59
2023/11/23 03:09:57;;;;;;;69.50;35.20;;;;;;;-0.28;91.68;100688.71;129160;1268;115387;-59
2023/11/23 03:13:00;;;;;;;65.50;34.80;;;;;;;-0.22;91.59;100680.81;129423;1263;115196;-59
2023/11/23 03:16:02;;;;;;;60.90;34.10;;;;;;;-0.19;91.53;100671.52;129497;1262;114733;-59
2023/11/23 03:19:04;;;;;;;60.60;34.50;;;;;;;-0.15;91.56;100666.61;129464;1263;114745;-59
2023/11/23 03:22:07;;;;;;;65.70;34.20;;;;;;;-0.10;91.62;100661.52;129533;1261;114791;-59
2023/11/23 03:25:10;;;;;;;63.40;34.40;;;;;;;-0.06;91.70;100646.59;129531;1264;114748;-59
2023/11/23 03:28:12;;;;;;;60.80;33.30;;;;;;;-0.00;91.94;100634.30;129405;1264;114912;-59
2023/11/23 03:31:14;;;;;;;61.40;33.60;;;;;;;0.03;91.81;100633.42;129500;1264;115207;-59
2023/11/23 03:34:16;;;;;;;58.30;33.50;;;;;;;0.08;91.74;100634.64;129343;1267;114802;-59
2023/11/23 03:37:18;;;;;;;58.90;31.70;;;;;;;0.13;91.92;100630.60;129596;1282;114729;-59
2023/11/23 03:40:20;;;;;;;65.20;34.90;;;;;;;0.18;91.85;100631.64;129373;1266;114747;-58
2023/11/23 03:43:22;;;;;;;65.50;34.50;;;;;;;0.21;91.67;100634.63;129507;1263;114754;-59
2023/11/23 03:46:23;;;;;;;60.10;34.90;;;;;;;0.25;91.80;100625.66;129382;1265;114628;-59
2023/11/23 03:49:25;;;;;;;64.60;34.70;;;;;;;0.29;91.76;100613.89;129358;1265;114797;-59
2023/11/23 03:52:27;;;;;;;58.50;32.90;;;;;;;0.32;91.68;100607.20;129439;1265;115364;-59
2023/11/23 03:55:29;;;;;;;59.60;32.00;;;;;;;0.36;91.77;100600.16;129468;1259;115263;-59
2023/11/23 03:58:32;;;;;;;58.60;31.80;;;;;;;0.41;91.72;100594.17;129457;1261;114742;-59
2023/11/23 04:01:34;;;;;;;54.40;29.80;;;;;;;0.45;91.90;100590.82;129481;1259;114765;-60
2023/11/23 04:04:36;;;;;;;57.20;31.20;;;;;;;0.50;91.96;100592.05;129217;1264;114826;-59
2023/11/23 04:07:38;;;;;;;54.20;30.10;;;;;;;0.55;91.98;100585.34;129381;1264;114813;-59
2023/11/23 04:10:40;;;;;;;58.70;29.10;;;;;;;0.58;91.95;100580.77;129526;1264;114781;-59
2023/11/23 04:13:42;;;;;;;61.40;31.50;;;;;;;0.64;92.43;100579.52;129354;1282;129716;-59
2023/11/23 04:16:44;;;;;;;69.90;36.20;;;;;;;0.68;92.04;100571.22;129562;1259;114730;-59
2023/11/23 04:19:46;;;;;;;56.50;29.30;;;;;;;0.71;91.94;100555.39;129600;1263;114761;-59
2023/11/23 04:22:48;;;;;;;49.60;27.70;;;;;;;0.74;92.20;100542.55;129556;1259;115399;-59
2023/11/23 04:25:50;;;;;;;49.90;28.80;;;;;;;0.78;91.93;100535.48;129349;1260;114738;-59
2023/11/23 04:28:52;;;;;;;54.00;29.10;;;;;;;0.81;92.11;100531.44;129375;1264;115152;-60
2023/11/23 04:31:54;;;;;;;52.00;28.00;;;;;;;0.84;91.76;100526.84;129494;1260;114799;-60
2023/11/23 04:34:55;;;;;;;50.90;29.20;;;;;;;0.87;92.00;100515.39;129330;1282;129676;-60
2023/11/23 04:37:58;;;;;;;50.50;27.90;;;;;;;0.90;91.90;100503.61;129337;1282;114704;-59
2023/11/23 04:41:00;;;;;;;47.80;26.90;;;;;;;0.94;91.92;100488.80;129460;1260;114725;-59
2023/11/23 04:44:03;;;;;;;47.10;26.80;;;;;;;0.97;92.07;100483.86;129467;1263;114804;-60
2023/11/23 04:47:05;;;;;;;47.20;26.30;;;;;;;0.99;91.90;100473.48;129423;1265;114915;-59
2023/11/23 04:50:07;;;;;;;53.60;27.00;;;;;;;1.01;91.83;100468.70;129472;1282;114710;-59
2023/11/23 04:53:09;;;;;;;45.20;25.70;;;;;;;1.02;91.64;100459.89;129625;1282;114708;-59
2023/11/23 04:56:12;;;;;;;44.80;26.10;;;;;;;1.06;91.63;100448.44;129387;1260;128686;-59
2023/11/23 04:59:14;;;;;;;46.40;26.30;;;;;;;1.10;91.63;100440.84;129582;1263;114799;-58
2023/11/23 05:02:16;;;;;;;48.90;26.60;;;;;;;1.12;91.78;100436.42;129494;1263;114782;-59
2023/11/23 05:05:19;;;;;;;43.90;25.30;;;;;;;1.15;91.75;100430.27;129544;1260;115437;-58
2023/11/23 05:08:23;;;;;;;48.10;26.10;;;;;;;1.19;91.93;100428.80;129274;1281;115103;-59
2023/11/23 05:11:25;;;;;;;44.00;25.60;;;;;;;1.24;92.13;100427.00;129493;1264;114959;-59
2023/11/23 05:14:26;;;;;;;44.70;26.00;;;;;;;1.28;92.20;100422.91;129399;1259;115413;-58
2023/11/23 05:17:30;;;;;;;41.90;25.30;;;;;;;1.33;92.31;100421.27;129502;1282;127672;-59
2023/11/23 05:20:33;;;;;;;43.20;23.30;;;;;;;1.37;92.11;100416.33;129503;1265;116410;-58
2023/11/23 05:23:34;;;;;;;45.50;25.30;;;;;;;1.42;91.91;100401.48;129502;1261;114788;-61
2023/11/23 05:26:36;;;;;;;44.70;25.00;;;;;;;1.47;92.12;100399.34;129387;1264;114771;-58
2023/11/23 05:29:38;;;;;;;42.00;24.80;;;;;;;1.50;92.02;100390.66;129460;1259;115250;-59
2023/11/23 05:32:41;;;;;;;41.40;24.40;;;;;;;1.54;91.80;100379.71;129393;1260;114748;-58
2023/11/23 05:35:43;;;;;;;42.70;24.30;;;;;;;1.57;91.74;100376.86;129356;1264;128883;-59
2023/11/23 05:38:45;;;;;;;44.00;24.60;;;;;;;1.60;91.69;100390.73;129409;1260;114738;-58
2023/11/23 05:41:47;;;;;;;37.20;23.20;;;;;;;1.63;91.62;100387.53;129439;1265;114781;-59
2023/11/23 05:44:48;;;;;;;43.10;23.10;;;;;;;1.65;91.36;100387.33;129357;1259;114821;-58
2023/11/23 05:47:51;;;;;;;42.10;23.00;;;;;;;1.69;91.46;100385.19;129463;1264;114850;-58
2023/11/23 05:50:53;;;;;;;38.60;24.80;;;;;;;1.72;91.65;100381.63;129410;1263;115358;-59
2023/11/23 05:53:55;;;;;;;40.90;22.40;;;;;;;1.74;91.60;100374.73;129420;1259;114799;-59
2023/11/23 05:56:57;;;;;;;44.00;24.90;;;;;;;1.77;91.60;100381.73;129080;1266;127830;-59
2023/11/23 05:59:58;;;;;;;40.70;24.10;;;;;;;1.80;91.65;100380.82;129407;1260;114728;-60
2023/11/23 06:03:00;;;;;;;44.80;25.40;;;;;;;1.82;91.57;100371.98;129409;1264;114809;-59
2023/11/23 06:06:03;;;;;;;42.90;25.20;;;;;;;1.85;91.73;100364.55;129427;1260;114729;-59
2023/11/23 06:09:05;;;;;;;41.80;25.50;;;;;;;1.89;91.68;100360.29;129505;1264;114736;-59
2023/11/23 06:12:08;;;;;;;45.10;24.60;;;;;;;1.92;91.71;100350.73;129502;1259;114754;-61
2023/11/23 06:15:10;;;;;;;42.30;24.50;;;;;;;1.94;91.64;100338.20;129414;1264;115340;-60
2023/11/23 06:18:12;;;;;;;45.60;25.90;;;;;;;1.98;91.81;100333.21;129295;1263;128441;-61
2023/11/23 06:21:14;;;;;;;42.40;24.60;;;;;;;2.01;91.80;100333.52;129556;1260;114823;-60
2023/11/23 06:24:19;;;;;;;39.00;22.90;;;;;;;2.06;91.87;100337.70;129580;1259;114775;-58
2023/11/23 06:27:21;;;;;;;43.60;24.40;;;;;;;2.09;91.89;100343.80;129379;1281;115107;-59
2023/11/23 06:30:23;;;;;;;40.90;23.10;;;;;;;2.12;91.83;100344.11;129371;1263;114773;-59
2023/11/23 06:33:27;;;;;;;38.20;23.30;;;;;;;2.16;91.66;100341.77;129575;1259;114890;-59
2023/11/23 06:36:29;;;;;;;42.40;23.80;;;;;;;2.20;91.79;100330.80;129317;1275;115213;-58
2023/11/23 06:39:35;;;;;;;40.90;23.80;;;;;;;2.24;91.71;100318.23;129401;1273;114805;-59
2023/11/23 06:42:37;;;;;;;39.40;22.80;;;;;;;2.28;91.78;100315.35;129380;1273;115227;-59
2023/11/23 06:45:39;;;;;;;43.80;24.90;;;;;;;2.32;91.77;100310.35;129468;1263;114650;-58
2023/11/23 06:48:44;;;;;;;47.90;24.80;;;;;;;2.35;91.75;100310.66;129504;1259;114871;-59
2023/11/23 06:51:45;;;;;;;44.80;25.90;;;;;;;2.40;91.72;100314.11;129501;1265;115186;-58
2023/11/23 06:54:48;;;;;;;38.40;23.20;;;;;;;2.44;91.85;100313.69;129344;1265;115105;-58
2023/11/23 06:57:50;;;;;;;41.40;23.40;;;;;;;2.48;91.74;100314.85;129550;1265;114718;-60
2023/11/23 07:00:51;;;;;;;40.20;23.20;;;;;;;2.53;91.57;100306.15;129388;1282;127605;-58
2023/11/23 07:03:53;;;;;;;37.60;21.50;;;;;;;2.59;91.84;100292.82;129456;1264;114752;-58
2023/11/23 07:06:55;;;;;;;35.00;19.40;;;;;;;2.63;91.58;100287.12;129438;1265;115400;-58
2023/11/23 07:09:57;;;;;;;33.80;19.90;;;;;;;2.69;91.66;100282.08;129495;1266;114734;-58
2023/11/23 07:12:59;;;;;;;35.40;19.30;;;;;;;2.75;91.70;100280.36;129383;1270;114783;-59
2023/11/23 07:16:02;;;;;;;35.60;19.90;;;;;;;2.81;91.55;100278.15;129507;1282;114766;-59
2023/11/23 07:19:04;;;;;;;35.10;19.00;;;;;;;2.86;91.67;100284.59;129475;1275;114740;-58
2023/11/23 07:22:06;;;;;;;33.20;20.00;;;;;;;2.92;91.54;100281.84;129511;1282;114710;-58
2023/11/23 07:25:09;;;;;;;33.40;18.40;;;;;;;2.97;91.58;100279.98;129604;1275;114730;-59
2023/11/23 07:28:11;;;;;;;36.10;18.40;;;;;;;3.02;91.56;100281.11;129493;1263;116550;-58
2023/11/23 07:31:13;;;;;;;28.20;17.90;;;;;;;3.09;91.68;100276.05;129372;1264;114751;-58
2023/11/23 07:34:15;;;;;;;30.70;18.30;;;;;;;3.13;91.40;100280.21;129324;1264;114802;-58
2023/11/23 07:37:17;;;;;;;33.50;17.80;;;;;;;3.17;91.31;100278.89;129562;1260;114739;-58
2023/11/23 07:40:19;;;;;;;30.30;16.90;;;;;;;3.21;91.37;100274.95;129293;1264;114828;-58
2023/11/23 07:43:21;;;;;;;26.30;16.10;;;;;;;3.26;91.59;100274.31;129338;1265;114746;-58
2023/11/23 07:46:23;;;;;;;28.30;17.20;;;;;;;3.30;91.31;100268.94;129389;1265;114714;-58
2023/11/23 07:49:25;;;;;;;30.90;16.40;;;;;;;3.33;91.43;100262.50;129325;1265;115206;-58
2023/11/23 07:52:27;;;;;;;30.00;16.20;;;;;;;3.37;91.19;100257.67;129413;1265;115256;-58
2023/11/23 07:55:31;;;;;;;27.10;18.00;;;;;;;3.42;91.04;100251.05;129458;1265;115216;-59
2023/11/23 07:58:33;;;;;;;32.10;16.70;;;;;;;3.46;91.38;100243.36;129211;1259;114888;-58
2023/11/23 08:01:35;;;;;;;32.50;18.40;;;;;;;3.52;91.32;100241.65;129479;1265;114775;-59
2023/11/23 08:04:37;;;;;;;27.40;17.40;;;;;;;3.57;91.24;100233.59;129446;1265;114844;-59
2023/11/23 08:07:39;;;;;;;26.20;15.60;;;;;;;3.61;91.01;100228.05;129254;1282;128438;-59
2023/11/23 08:10:41;;;;;;;25.80;17.00;;;;;;;3.65;91.08;100219.64;129458;1265;114830;-58
2023/11/23 08:13:44;;;;;;;23.90;14.40;;;;;;;3.69;90.72;100215.34;129472;1264;115221;-58
2023/11/23 08:16:46;;;;;;;21.60;14.10;;;;;;;3.72;90.60;100212.24;129401;1282;114788;-58
2023/11/23 08:19:48;;;;;;;23.40;14.70;;;;;;;3.76;90.64;100206.67;129355;1282;114687;-58
2023/11/23 08:22:51;;;;;;;24.80;14.10;;;;;;;3.80;90.75;100201.28;129500;1265;114700;-58
2023/11/23 08:25:53;;;;;;;20.60;13.80;;;;;;;3.85;90.56;100195.16;129199;1265;114869;-58
2023/11/23 08:28:55;;;;;;;23.80;14.30;;;;;;;3.90;90.63;100189.75;129326;1264;114714;-59
2023/11/23 08:31:58;;;;;;;26.20;14.60;;;;;;;3.97;90.72;100186.58;129399;1265;114780;-59
2023/11/23 08:35:02;;;;;;;48.50;25.50;;;;;;;4.03;90.35;100187.48;129238;1279;115446;-58
2023/11/23 08:38:05;;;;;;;48.30;25.20;;;;;;;4.09;90.57;100188.06;129265;1262;114922;-58
2023/11/23 08:41:07;;;;;;;27.70;16.30;;;;;;;4.15;90.47;100196.40;129463;1264;114698;-58
2023/11/23 08:44:09;;;;;;;25.60;15.30;;;;;;;4.21;90.47;100201.02;129419;1265;114702;-58
2023/11/23 08:47:11;;;;;;;22.40;12.90;;;;;;;4.25;90.31;100199.14;129272;1262;114835;-59
2023/11/23 08:50:13;;;;;;;22.80;13.90;;;;;;;4.28;90.19;100193.42;129392;1262;115403;-59
2023/11/23 08:53:15;;;;;;;23.30;14.10;;;;;;;4.32;90.31;100186.58;129229;1259;114913;-58
2023/11/23 08:56:17;;;;;;;23.40;14.70;;;;;;;4.38;90.29;100186.44;127070;1263;3445958;-59
2023/11/23 08:59:19;;;;;;;20.70;12.10;;;;;;;4.46;90.47;100185.54;129426;1282;114825;-59
2023/11/23 09:02:22;;;;;;;22.10;13.60;;;;;;;4.52;90.46;100182.03;129493;1264;115156;-59
2023/11/23 09:05:23;;;;;;;21.70;13.20;;;;;;;4.57;90.40;100178.69;129568;1260;115012;-59
2023/11/23 09:08:26;;;;;;;23.60;13.90;;;;;;;4.63;90.49;100166.69;129592;1265;114757;-59
2023/11/23 09:11:27;;;;;;;25.00;14.40;;;;;;;4.69;90.57;100160.86;129405;1265;115057;-59
2023/11/23 09:14:29;;;;;;;23.10;13.70;;;;;;;4.78;90.79;100163.46;129414;1273;114722;-59
2023/11/23 09:17:33;;;;;;;20.20;13.80;;;;;;;4.84;90.83;100157.96;129479;1275;114780;-59
2023/11/23 09:20:35;;;;;;;26.20;14.30;;;;;;;4.92;90.71;100144.31;129442;1265;115210;-59
2023/11/23 09:23:37;;;;;;;27.40;14.50;;;;;;;5.00;90.91;100134.68;129362;1266;114784;-59
2023/11/23 09:26:40;;;;;;;26.80;15.10;;;;;;;5.11;90.86;100125.17;129517;1263;114715;-59
2023/11/23 09:29:42;;;;;;;26.40;14.40;;;;;;;5.23;90.95;100118.95;129442;1282;114795;-59
2023/11/23 09:32:43;;;;;;;25.40;13.20;;;;;;;5.38;90.99;100118.85;129356;1273;114793;-59
2023/11/23 09:35:45;;;;;;;17.70;11.20;;;;;;;5.49;90.91;100119.40;129430;1260;114710;-59
2023/11/23 09:38:49;;;;;;;20.20;12.40;;;;;;;5.58;90.84;100117.36;129353;1282;128890;-59
2023/11/23 09:41:51;;;;;;;21.00;12.40;;;;;;;5.66;90.90;100114.09;129400;1282;115184;-60
2023/11/23 09:44:57;;;;;;;17.60;11.40;;;;;;;5.75;90.96;100105.46;129436;1259;114704;-59
2023/11/23 09:47:59;;;;;;;16.00;10.10;;;;;;;5.85;90.90;100091.13;129419;1266;114700;-60
2023/11/23 09:51:02;;;;;;;16.60;10.50;;;;;;;5.94;90.83;100081.08;129350;1264;114792;-60
2023/11/23 09:54:05;;;;;;;16.10;10.60;;;;;;;6.07;90.77;100070.59;129476;1275;114725;-60
2023/11/23 09:57:08;;;;;;;18.50;9.70;;;;;;;6.22;91.06;100057.27;129419;1274;114825;-60
2023/11/23 10:00:18;;;;;;;12.40;9.30;;;;;;;6.39;91.24;100061.80;129409;1275;114846;-59
2023/11/23 10:03:22;;;;;;;12.00;8.50;;;;;;;6.55;90.73;100055.02;129420;1265;114796;-59
2023/11/23 10:06:24;;;;;;;12.00;7.70;;;;;;;6.71;90.55;100049.30;129382;1266;114788;-60
2023/11/23 10:09:26;;;;;;;9.70;6.90;;;;;;;6.83;90.63;100031.97;129330;1265;114725;-59
2023/11/23 10:12:29;;;;;;;13.40;7.50;;;;;;;6.93;90.40;100019.52;129502;1265;114718;-60
2023/11/23 10:15:31;;;;;;;10.10;6.60;;;;;;;7.04;90.59;100008.10;129388;1264;114762;-60
2023/11/23 10:18:42;;;;;;;11.10;6.90;;;;;;;7.14;90.55;99992.96;129435;1265;115276;-59
2023/11/23 10:21:44;;;;;;;11.50;6.90;;;;;;;7.24;90.49;99983.52;129361;1283;114854;-60
2023/11/23 10:24:49;;;;;;;12.30;6.70;;;;;;;7.34;90.80;99968.17;129429;1283;114741;-59
2023/11/23 10:27:55;;;;;;;10.70;6.10;;;;;;;7.44;90.46;99957.61;129350;1264;128970;-61
2023/11/23 10:30:56;;;;;;;8.00;5.80;;;;;;;7.51;90.57;99947.91;129394;1263;115264;-58
2023/11/23 10:33:59;;;;;;;12.20;6.80;;;;;;;7.57;90.23;99944.83;129313;1262;115416;-58
2023/11/23 10:37:00;;;;;;;9.20;6.00;;;;;;;7.64;89.92;99936.15;129448;1263;114942;-59
2023/11/23 10:40:07;;;;;;;11.50;6.80;;;;;;;7.71;90.01;99925.57;129184;1265;114781;-58
2023/11/23 10:43:12;;;;;;;13.00;6.40;;;;;;;7.80;89.92;99909.89;129411;1281;114809;-58
2023/11/23 10:46:13;;;;;;;;;;;;;;;7.87;90.26;99902.10;129373;1262;130230;-59
2023/11/23 10:49:16;;;;;;;10.40;6.30;;;;;;;7.90;89.75;99896.23;129229;1262;115160;-59
2023/11/23 10:52:19;;;;;;;15.60;6.80;;;;;;;7.93;89.37;99887.95;129557;1265;114704;-59
2023/11/23 10:55:21;;;;;;;9.80;6.90;;;;;;;7.97;89.74;99874.41;129497;1264;115119;-59
2023/11/23 10:58:23;;;;;;;11.10;6.40;;;;;;;8.02;89.35;99866.39;129394;1265;115150;-59
2023/11/23 11:01:26;;;;;;;12.50;6.60;;;;;;;8.07;89.42;99862.61;129484;1265;115113;-60
2023/11/23 11:04:29;;;;;;;11.70;6.10;;;;;;;8.14;89.21;99852.13;129391;1282;114812;-61
2023/11/23 11:07:34;;;;;;;10.90;6.20;;;;;;;8.20;88.87;99855.60;129501;1260;114681;-58
2023/11/23 11:10:42;;;;;;;10.10;6.70;;;;;;;8.25;88.73;99846.12;129390;1266;115177;-60
2023/11/23 11:13:44;;;;;;;9.50;5.90;;;;;;;8.32;88.70;99835.81;129398;1265;114708;-58
2023/11/23 11:16:46;;;;;;;11.20;6.50;;;;;;;8.39;88.71;99833.71;129601;1263;115266;-58
2023/11/23 11:19:49;;;;;;;8.90;6.00;;;;;;;8.43;88.41;99836.20;129428;1273;115500;-59
2023/11/23 11:22:55;;;;;;;13.90;6.10;;;;;;;8.44;88.33;99829.02;129451;1282;114726;-59
2023/11/23 11:26:06;;;;;;;12.90;6.40;;;;;;;8.45;87.79;99826.84;129450;1265;129133;-59
2023/11/23 11:29:08;;;;;;;11.20;6.00;;;;;;;8.47;88.06;99824.79;129376;1259;115082;-59
2023/11/23 11:32:10;;;;;;;12.30;5.60;;;;;;;8.51;88.09;99822.32;129396;1277;115357;-59
2023/11/23 11:35:17;;;;;;;12.20;6.50;;;;;;;8.53;88.20;99818.99;129395;1263;114813;-59
2023/11/23 11:38:19;;;;;;;31.60;11.40;;;;;;;8.57;88.24;99813.48;129490;1270;115108;-59
2023/11/23 11:41:23;;;;;;;43.00;16.60;;;;;;;8.62;88.15;99808.06;129307;1265;114787;-59
2023/11/23 11:44:29;;;;;;;14.00;6.50;;;;;;;8.68;88.38;99804.74;129460;1265;114875;-59
2023/11/23 11:47:31;;;;;;;11.70;7.70;;;;;;;8.73;88.33;99813.23;129771;1273;114712;-59
2023/11/23 11:50:35;;;;;;;11.80;6.20;;;;;;;8.77;88.11;99807.52;129367;1282;114806;-57
2023/11/23 11:53:37;;;;;;;6.60;4.20;;;;;;;8.80;88.10;99800.77;129465;1282;114729;-59
2023/11/23 11:56:39;;;;;;;7.00;4.00;;;;;;;8.83;88.03;99789.77;129454;1260;114735;-59
2023/11/23 11:59:41;;;;;;;4.20;3.40;;;;;;;8.85;87.92;99784.52;129401;1282;114731;-58
2023/11/23 12:02:43;;;;;;;5.10;3.50;;;;;;;8.86;87.94;99778.23;129464;1263;114725;-58
2023/11/23 12:05:45;;;;;;;7.90;4.30;;;;;;;8.87;88.15;99771.60;129405;1264;115079;-59
2023/11/23 12:08:48;;;;;;;8.70;5.50;;;;;;;8.87;87.86;99769.98;129523;1273;114717;-60
2023/11/23 12:11:54;;;;;;;11.80;6.00;;;;;;;8.85;87.55;99766.35;129455;1282;115325;-59
2023/11/23 12:14:56;;;;;;;9.90;6.40;;;;;;;8.81;87.15;99764.56;129396;1264;114799;-59
2023/11/23 12:18:02;;;;;;;8.70;6.60;;;;;;;8.79;87.14;99764.70;129466;1266;114734;-59
2023/11/23 12:21:12;;;;;;;13.80;7.30;;;;;;;8.73;86.86;99760.34;129397;1263;115189;-60
2023/11/23 12:24:18;;;;;;;10.50;7.30;;;;;;;8.68;86.70;99756.70;129428;1282;114713;-59
2023/11/23 12:27:25;;;;;;;11.30;7.80;;;;;;;8.60;86.40;99753.84;129205;1282;114864;-59
2023/11/23 12:30:26;;;;;;;9.60;7.00;;;;;;;8.52;86.01;99752.84;129457;1281;114718;-60
2023/11/23 12:33:28;;;;;;;9.20;6.50;;;;;;;8.44;86.16;99758.73;129436;1263;114725;-59
2023/11/23 12:36:32;;;;;;;13.20;7.20;;;;;;;8.35;85.88;99759.17;129450;1261;114842;-59
2023/11/23 12:39:34;;;;;;;11.10;7.00;;;;;;;8.28;85.85;99748.13;129463;1264;114886;-65
2023/11/23 12:42:36;;;;;;;11.20;6.50;;;;;;;8.23;85.46;99746.27;129494;1266;114710;-63
2023/11/23 12:45:38;;;;;;;12.20;7.50;;;;;;;8.19;85.54;99741.10;129286;1264;114722;-66
2023/11/23 12:48:40;;;;;;;12.80;6.80;;;;;;;8.17;85.84;99735.15;129381;1264;114814;-66
2023/11/23 12:51:42;;;;;;;17.90;8.10;;;;;;;8.17;86.12;99736.05;129463;1282;114819;-64
2023/11/23 12:54:44;;;;;;;11.30;7.40;;;;;;;8.16;85.89;99721.12;129474;1274;115091;-65
2023/11/23 12:57:46;;;;;;;12.30;7.10;;;;;;;8.18;86.15;99711.63;129380;1282;114734;-64
2023/11/23 13:00:48;;;;;;;12.40;7.70;;;;;;;8.18;85.65;99701.49;129442;1260;115237;-66
2023/11/23 13:03:50;;;;;;;13.10;8.30;;;;;;;8.15;85.76;99704.13;129389;1266;114802;-65
2023/11/23 13:06:54;;;;;;;13.80;8.40;;;;;;;8.10;85.46;99704.38;129414;1263;114857;-65
2023/11/23 13:09:57;;;;;;;16.00;9.70;;;;;;;8.03;84.96;99689.02;129382;1283;115102;-66
2023/11/23 13:13:00;;;;;;;10.90;7.80;;;;;;;7.98;84.72;99681.09;129258;1264;115107;-65
2023/11/23 13:16:02;;;;;;;10.30;8.10;;;;;;;7.91;84.29;99677.52;129457;1263;114781;-66
2023/11/23 13:19:06;;;;;;;11.00;7.00;;;;;;;7.85;84.51;99670.71;129419;1263;115223;-64
2023/11/23 13:22:09;;;;;;;13.70;7.80;;;;;;;7.76;84.10;99667.94;129321;1264;114736;-65
2023/11/23 13:25:11;;;;;;;13.90;8.10;;;;;;;7.71;84.11;99669.42;129401;1281;115200;-65
2023/11/23 13:28:13;;;;;;;9.30;7.40;;;;;;;7.68;84.25;99653.20;129432;1275;114783;-65
2023/11/23 13:31:15;;;;;;;10.20;7.50;;;;;;;7.65;84.24;99644.99;129379;1281;115208;-64
2023/11/23 13:34:19;;;;;;;11.60;8.00;;;;;;;7.60;84.05;99640.62;129357;1266;129514;-65
2023/11/23 13:37:20;;;;;;;12.30;8.10;;;;;;;7.54;84.03;99630.95;129397;1264;114700;-63
2023/11/23 13:40:23;;;;;;;11.40;7.70;;;;;;;7.50;83.81;99628.85;129250;1278;114639;-66
2023/11/23 13:43:25;;;;;;;14.90;8.00;;;;;;;7.47;84.02;99624.54;129459;1260;114731;-67